Map

Track Data

SID SEASON NUMBER BASIN SUBBASIN NAME ISO_TIME NATURE LAT LON WMO_WIND WMO_PRES WMO_AGENCY TRACK_TYPE DIST2LAND LANDFALL IFLAG USA_AGENCY USA_ATCF_ID USA_LAT USA_LON USA_RECORD USA_STATUS USA_WIND USA_PRES USA_SSHS USA_R34_NE USA_R34_SE USA_R34_SW USA_R34_NW USA_R50_NE USA_R50_SE USA_R50_SW USA_R50_NW USA_R64_NE USA_R64_SE USA_R64_SW USA_R64_NW USA_POCI USA_ROCI USA_RMW USA_EYE TOKYO_LAT TOKYO_LON TOKYO_GRADE TOKYO_WIND TOKYO_PRES TOKYO_R50_DIR TOKYO_R50_LONG TOKYO_R50_SHORT TOKYO_R30_DIR TOKYO_R30_LONG TOKYO_R30_SHORT TOKYO_LAND CMA_LAT CMA_LON CMA_CAT CMA_WIND CMA_PRES HKO_LAT HKO_LON HKO_CAT HKO_WIND HKO_PRES NEWDELHI_LAT NEWDELHI_LON NEWDELHI_GRADE NEWDELHI_WIND NEWDELHI_PRES NEWDELHI_CI NEWDELHI_DP NEWDELHI_POCI REUNION_LAT REUNION_LON REUNION_TYPE REUNION_WIND REUNION_PRES REUNION_TNUM REUNION_CI REUNION_RMW REUNION_R34_NE REUNION_R34_SE REUNION_R34_SW REUNION_R34_NW REUNION_R50_NE REUNION_R50_SE REUNION_R50_SW REUNION_R50_NW REUNION_R64_NE REUNION_R64_SE REUNION_R64_SW REUNION_R64_NW BOM_LAT BOM_LON BOM_TYPE BOM_WIND BOM_PRES BOM_TNUM BOM_CI BOM_RMW BOM_R34_NE BOM_R34_SE BOM_R34_SW BOM_R34_NW BOM_R50_NE BOM_R50_SE BOM_R50_SW BOM_R50_NW BOM_R64_NE BOM_R64_SE BOM_R64_SW BOM_R64_NW BOM_ROCI BOM_POCI BOM_EYE BOM_POS_METHOD BOM_PRES_METHOD NADI_LAT NADI_LON NADI_CAT NADI_WIND NADI_PRES WELLINGTON_LAT WELLINGTON_LON WELLINGTON_WIND WELLINGTON_PRES DS824_LAT DS824_LON DS824_STAGE DS824_WIND DS824_PRES TD9636_LAT TD9636_LON TD9636_STAGE TD9636_WIND TD9636_PRES TD9635_LAT TD9635_LON TD9635_WIND TD9635_PRES TD9635_ROCI NEUMANN_LAT NEUMANN_LON NEUMANN_CLASS NEUMANN_WIND NEUMANN_PRES MLC_LAT MLC_LON MLC_CLASS MLC_WIND MLC_PRES USA_GUST BOM_GUST BOM_GUST_PER REUNION_GUST REUNION_GUST_PER USA_SEAHGT USA_SEARAD_NE USA_SEARAD_SE USA_SEARAD_SW USA_SEARAD_NW STORM_SPEED STORM_DIR
1943032S16045 1943 12 SI MM NOT_NAMED 1943-02-01 06:00:00 NR -15.9000 44.8000 reunion spur-split 30 30 _____O________ -1 -15.9000 44.8000 99 9.90000 3 259
1943032S16045 1943 12 SI MM NOT_NAMED 1943-02-01 09:00:00 NR -15.9252 44.6560 spur-split 39 39 _____P________ -1 -15.9252 44.6560 99 3 260
1943032S16045 1943 12 SI MM NOT_NAMED 1943-02-01 12:00:00 NR -15.9515 44.5055 spur-split 33 33 _____P________ -1 -15.9515 44.5055 99 3 260
1943032S16045 1943 12 SI MM NOT_NAMED 1943-02-01 15:00:00 NR -15.9802 44.3420 spur-split 35 35 _____P________ -1 -15.9802 44.3420 99 3 260
1943032S16045 1943 12 SI MM NOT_NAMED 1943-02-01 18:00:00 NR -16.0124 44.1590 spur-split 39 39 _____P________ -1 -16.0124 44.1590 99 4 260
1943032S16045 1943 12 SI MM NOT_NAMED 1943-02-01 21:00:00 NR -16.0494 43.9498 spur-split 63 57 _____P________ -1 -16.0494 43.9498 99 4 260
1943032S16045 1943 12 SI MM NOT_NAMED 1943-02-02 00:00:00 NR -16.0923 43.7080 spur-split 78 78 _____P________ -1 -16.0923 43.7080 99 5 260
1943032S16045 1943 12 SI MM NOT_NAMED 1943-02-02 03:00:00 NR -16.1421 43.4269 spur-split 109 107 _____P________ -1 -16.1421 43.4269 99 6 260
1943032S16045 1943 12 SI MM NOT_NAMED 1943-02-02 06:00:00 NR -16.2000 43.1000 reunion spur-split 139 139 _____O________ -1 -16.2000 43.1000 99 9.90000 7 260
1943032S16045 1943 12 SI MM NOT_NAMED 1943-02-02 09:00:00 NR -16.2669 42.7242 spur-split 179 179 _____P________ -1 -16.2669 42.7242 99 8 259
1943032S16045 1943 12 SI MM NOT_NAMED 1943-02-02 12:00:00 NR -16.3440 42.3111 spur-split 207 178 _____P________ -1 -16.3440 42.3111 99 8 258
1943032S16045 1943 12 SI MM NOT_NAMED 1943-02-02 15:00:00 NR -16.4326 41.8758 spur-split 178 147 _____P________ -1 -16.4326 41.8758 99 9 257
1943032S16045 1943 12 SI MM NOT_NAMED 1943-02-02 18:00:00 NR -16.5341 41.4336 spur-split 139 115 _____P________ -1 -16.5341 41.4336 99 9 256
1943032S16045 1943 12 SI MM NOT_NAMED 1943-02-02 21:00:00 NR -16.6499 40.9997 spur-split 115 91 _____P________ -1 -16.6499 40.9997 99 8 253
1943032S16045 1943 12 SI MM NOT_NAMED 1943-02-03 00:00:00 NR -16.7816 40.5892 spur-split 91 61 _____P________ -1 -16.7816 40.5892 99 8 249
1943032S16045 1943 12 SI MM NOT_NAMED 1943-02-03 03:00:00 NR -16.9310 40.2176 spur-split 61 59 _____P________ -1 -16.9310 40.2176 99 7 244
1943032S16045 1943 12 SI MM NOT_NAMED 1943-02-03 06:00:00 NR -17.1000 39.9000 reunion spur-split 64 59 _____O________ -1 -17.1000 39.9000 99 9.90000 7 235
1943032S16045 1943 12 SI MM NOT_NAMED 1943-02-03 09:00:00 NR -17.3014 39.6579 spur-split 70 61 _____P________ -1 -17.3014 39.6579 99 6 224
1943032S16045 1943 12 SI MM NOT_NAMED 1943-02-03 12:00:00 NR -17.5256 39.4628 spur-split 70 70 _____P________ -1 -17.5256 39.4628 99 6 215
1943032S16045 1943 12 SI MM NOT_NAMED 1943-02-03 15:00:00 NR -17.7665 39.3113 spur-split 92 92 _____P________ -1 -17.7665 39.3113 99 6 207
1943032S16045 1943 12 SI MM NOT_NAMED 1943-02-03 18:00:00 NR -18.0177 39.2004 spur-split 112 112 _____P________ -1 -18.0177 39.2004 99 5 199
1943032S16045 1943 12 SI MM NOT_NAMED 1943-02-03 21:00:00 NR -18.2731 39.1270 spur-split 140 140 _____P________ -1 -18.2731 39.1270 99 5 192
1943032S16045 1943 12 SI MM NOT_NAMED 1943-02-04 00:00:00 NR -18.5261 39.0878 spur-split 162 162 _____P________ -1 -18.5261 39.0878 99 5 184
1943032S16045 1943 12 SI MM NOT_NAMED 1943-02-04 03:00:00 NR -18.7706 39.0799 spur-split 194 194 _____P________ -1 -18.7706 39.0799 99 5 0
1943032S16045 1943 12 SI MM NOT_NAMED 1943-02-04 06:00:00 NR -19.0000 39.1000 reunion spur-split 216 216 _____O________ -1 -19.0000 39.1000 99 9.90000 4 173
1943032S16045 1943 12 SI MM NOT_NAMED 1943-02-04 09:00:00 NR -19.2095 39.1450 spur-split 237 237 _____P________ -1 -19.2095 39.1450 99 4 166
1943032S16045 1943 12 SI MM NOT_NAMED 1943-02-04 12:00:00 NR -19.4003 39.2119 spur-split 262 262 _____P________ -1 -19.4003 39.2119 99 4 159
1943032S16045 1943 12 SI MM NOT_NAMED 1943-02-04 15:00:00 NR -19.5750 39.2976 spur-split 286 286 _____P________ -1 -19.5750 39.2976 99 4 152
1943032S16045 1943 12 SI MM NOT_NAMED 1943-02-04 18:00:00 NR -19.7362 39.3990 spur-split 300 300 _____P________ -1 -19.7362 39.3990 99 4 147
1943032S16045 1943 12 SI MM NOT_NAMED 1943-02-04 21:00:00 NR -19.8867 39.5130 spur-split 324 324 _____P________ -1 -19.8867 39.5130 99 4 143
1943032S16045 1943 12 SI MM NOT_NAMED 1943-02-05 00:00:00 NR -20.0290 39.6366 spur-split 338 338 _____P________ -1 -20.0290 39.6366 99 4 140
1943032S16045 1943 12 SI MM NOT_NAMED 1943-02-05 03:00:00 NR -20.1659 39.7666 spur-split 365 365 _____P________ -1 -20.1659 39.7666 99 4 138
1943032S16045 1943 12 SI MM NOT_NAMED 1943-02-05 06:00:00 NR -20.3000 39.9000 reunion spur-split 378 _____O________ -1 -20.3000 39.9000 99 9.90000 4 138

About IBTrACS Database

This database is a web-friendly format of International Best Track Archive for Climate Stewardship (IBTrACS), a global best track data archive curated by NOAA dating back to 1842.

Updated: 2021-11-26